createdAt,value
2018-07-05T00:00:35.780Z,21.70
2018-07-05T00:03:22.136Z,21.70
2018-07-05T00:06:08.559Z,21.60
2018-07-05T00:08:55.178Z,21.50
2018-07-05T00:11:41.485Z,21.50
2018-07-05T00:14:27.835Z,21.30
2018-07-05T00:17:14.286Z,21.20
2018-07-05T00:20:00.922Z,21.30
2018-07-05T00:22:47.320Z,21.30
2018-07-05T00:25:33.897Z,21.30
2018-07-05T00:28:20.146Z,21.30
2018-07-05T00:31:06.629Z,21.40
2018-07-05T00:33:53.000Z,21.40
2018-07-05T00:36:39.506Z,21.30
2018-07-05T00:39:25.927Z,21.20
2018-07-05T00:42:12.501Z,21.30
2018-07-05T00:44:59.005Z,21.20
2018-07-05T00:47:45.326Z,21.20
2018-07-05T00:50:31.681Z,21.20
2018-07-05T00:53:18.202Z,21.30
2018-07-05T00:56:04.830Z,21.20
2018-07-05T00:58:51.273Z,21.30
2018-07-05T01:01:37.757Z,21.20
2018-07-05T01:04:24.222Z,21.30
2018-07-05T01:07:10.965Z,21.20
2018-07-05T01:09:57.620Z,21.30
2018-07-05T01:12:44.121Z,21.00
2018-07-05T01:15:30.564Z,21.10
2018-07-05T01:18:16.848Z,21.00
2018-07-05T01:21:03.162Z,20.90
2018-07-05T01:23:49.695Z,20.70
2018-07-05T01:26:36.418Z,20.60
2018-07-05T01:29:22.807Z,20.60
2018-07-05T01:32:09.259Z,20.60
2018-07-05T01:34:55.602Z,20.70
2018-07-05T01:37:42.017Z,20.70
2018-07-05T01:43:08.912Z,20.50
2018-07-05T01:45:55.349Z,20.50
2018-07-05T01:48:41.740Z,20.60
2018-07-05T01:51:28.188Z,20.50
2018-07-05T01:54:14.769Z,20.50
2018-07-05T01:57:01.155Z,20.50
2018-07-05T01:59:47.457Z,20.60
2018-07-05T02:02:33.813Z,20.60
2018-07-05T02:05:20.241Z,20.60
2018-07-05T02:08:06.531Z,20.60
2018-07-05T02:10:52.954Z,20.50
2018-07-05T02:13:39.273Z,20.50
2018-07-05T02:16:25.753Z,20.60
2018-07-05T02:19:12.343Z,20.40
2018-07-05T02:21:58.793Z,20.40
2018-07-05T02:24:45.268Z,20.40
2018-07-05T02:27:31.625Z,20.40
2018-07-05T02:30:18.053Z,20.30
2018-07-05T02:33:04.559Z,20.30
2018-07-05T02:35:51.095Z,20.20
2018-07-05T02:38:37.361Z,20.20
2018-07-05T02:41:23.666Z,20.20
2018-07-05T02:44:10.041Z,20.20
2018-07-05T02:46:56.477Z,20.20
2018-07-05T02:49:43.089Z,20.20
2018-07-05T02:52:29.265Z,20.00
2018-07-05T02:55:15.757Z,20.00
2018-07-05T02:58:02.229Z,20.00
2018-07-05T03:00:48.558Z,20.00
2018-07-05T03:03:34.836Z,20.00
2018-07-05T03:06:21.190Z,20.00
2018-07-05T03:11:47.694Z,20.00
2018-07-05T03:14:34.009Z,20.00
2018-07-05T03:17:20.335Z,20.10
2018-07-05T03:20:06.597Z,20.10
2018-07-05T03:22:52.963Z,20.10
2018-07-05T03:25:39.397Z,20.10
2018-07-05T03:28:25.826Z,20.10
2018-07-05T03:31:12.144Z,20.00
2018-07-05T03:33:58.415Z,20.10
2018-07-05T03:36:44.760Z,20.00
2018-07-05T03:39:31.065Z,19.90
2018-07-05T03:42:17.425Z,20.00
2018-07-05T03:45:03.768Z,20.00
2018-07-05T03:47:50.289Z,20.10
2018-07-05T03:50:36.722Z,20.10
2018-07-05T03:53:23.108Z,20.00
2018-07-05T03:56:09.568Z,20.10
2018-07-05T03:58:55.926Z,20.00
2018-07-05T04:01:42.637Z,20.00
2018-07-05T04:04:28.941Z,20.00
2018-07-05T04:07:15.344Z,20.10
2018-07-05T04:10:01.685Z,20.20
2018-07-05T04:12:48.126Z,20.20
2018-07-05T04:15:34.524Z,20.20
2018-07-05T04:18:20.726Z,20.00
2018-07-05T04:21:06.986Z,20.10
2018-07-05T04:23:53.464Z,20.10
2018-07-05T04:26:39.765Z,20.20
2018-07-05T04:29:26.057Z,20.10
2018-07-05T04:32:12.376Z,20.20
2018-07-05T04:34:58.833Z,20.20
2018-07-05T04:37:45.050Z,20.30
2018-07-05T04:40:31.336Z,20.20
2018-07-05T04:45:58.031Z,20.30
2018-07-05T04:48:44.353Z,20.30
2018-07-05T04:51:30.876Z,20.30
2018-07-05T04:54:17.565Z,20.30
2018-07-05T04:57:03.979Z,20.40
2018-07-05T04:59:50.362Z,20.40
2018-07-05T05:02:36.981Z,20.30
2018-07-05T05:05:23.416Z,20.30
2018-07-05T05:08:09.936Z,20.40
2018-07-05T05:10:56.496Z,20.40
2018-07-05T05:13:42.852Z,20.60
2018-07-05T05:16:29.124Z,20.70
2018-07-05T05:19:15.519Z,20.80
2018-07-05T05:22:01.877Z,20.60
2018-07-05T05:24:48.366Z,20.50
2018-07-05T05:27:34.724Z,20.60
2018-07-05T05:30:21.002Z,20.80
2018-07-05T05:33:07.483Z,20.90
2018-07-05T05:35:54.131Z,20.90
2018-07-05T05:38:40.626Z,20.70
2018-07-05T05:41:27.101Z,20.60
2018-07-05T05:44:13.481Z,20.50
2018-07-05T05:46:59.890Z,20.60
2018-07-05T05:49:46.363Z,20.80
2018-07-05T05:52:32.635Z,21.10
2018-07-05T05:55:18.927Z,20.70
2018-07-05T05:58:05.292Z,20.50
2018-07-05T06:00:51.832Z,20.90
2018-07-05T06:03:38.329Z,21.00
2018-07-05T06:06:24.677Z,21.00
2018-07-05T06:09:11.117Z,20.90
2018-07-05T06:11:57.711Z,20.80
2018-07-05T06:14:44.061Z,20.70
2018-07-05T06:17:30.435Z,20.70
2018-07-05T06:20:16.988Z,20.80
2018-07-05T06:23:03.477Z,20.70
2018-07-05T06:25:49.809Z,20.60
2018-07-05T06:28:36.225Z,20.60
2018-07-05T06:31:22.523Z,20.60
2018-07-05T06:34:08.952Z,20.80
2018-07-05T06:36:55.260Z,20.90
2018-07-05T06:39:41.848Z,20.80
2018-07-05T06:42:28.340Z,20.90
2018-07-05T06:47:55.077Z,20.90
2018-07-05T06:50:41.408Z,20.60
2018-07-05T06:53:27.714Z,20.50
2018-07-05T06:56:14.069Z,20.90
2018-07-05T06:59:00.534Z,21.10
2018-07-05T07:01:46.810Z,21.10
2018-07-05T07:04:33.155Z,20.80
2018-07-05T07:07:19.545Z,21.00
2018-07-05T07:10:06.000Z,21.30
2018-07-05T07:12:52.600Z,21.40
2018-07-05T07:15:38.993Z,21.20
2018-07-05T07:18:25.482Z,21.40
2018-07-05T07:21:11.896Z,21.30
2018-07-05T07:23:58.434Z,21.00
2018-07-05T07:26:45.011Z,20.90
2018-07-05T07:29:31.592Z,21.00
2018-07-05T07:32:18.012Z,21.20
2018-07-05T07:35:04.556Z,21.30
2018-07-05T07:37:51.039Z,21.20
2018-07-05T07:40:37.497Z,21.30
2018-07-05T07:43:11.324Z,21.50
2018-07-05T07:45:39.106Z,21.40
2018-07-05T07:48:06.749Z,21.30
2018-07-05T07:50:34.441Z,21.10
2018-07-05T07:53:02.140Z,21.20
2018-07-05T07:55:29.850Z,21.10
2018-07-05T07:57:57.556Z,21.20
2018-07-05T08:00:25.265Z,21.00
2018-07-05T08:02:52.944Z,21.20
2018-07-05T08:05:20.841Z,21.40
2018-07-05T08:07:48.535Z,21.40
2018-07-05T08:10:16.230Z,21.30
2018-07-05T08:12:43.918Z,21.50
2018-07-05T08:17:39.586Z,21.30
2018-07-05T08:20:08.247Z,21.50
2018-07-05T08:22:36.081Z,21.70
2018-07-05T08:25:03.755Z,21.50
2018-07-05T08:27:31.461Z,21.40
2018-07-05T08:29:59.209Z,21.60
2018-07-05T08:32:27.018Z,21.70
2018-07-05T08:34:54.735Z,21.60
2018-07-05T08:37:22.426Z,21.60
2018-07-05T08:39:50.147Z,21.80
2018-07-05T08:42:17.835Z,21.70
2018-07-05T08:44:45.533Z,21.40
2018-07-05T08:47:13.200Z,21.60
2018-07-05T08:49:40.910Z,21.90
2018-07-05T08:52:08.668Z,22.10
2018-07-05T08:54:36.402Z,22.00
2018-07-05T08:57:04.077Z,21.90
2018-07-05T08:59:31.780Z,21.80
2018-07-05T09:01:59.465Z,21.80
2018-07-05T09:04:27.841Z,22.00
2018-07-05T09:06:55.613Z,22.10
2018-07-05T09:09:23.389Z,22.20
2018-07-05T09:11:51.741Z,22.20
2018-07-05T09:14:19.458Z,22.00
2018-07-05T09:16:47.149Z,22.10
2018-07-05T09:19:14.829Z,22.10
2018-07-05T09:21:42.537Z,22.20
2018-07-05T09:24:10.234Z,22.00
2018-07-05T09:26:37.981Z,21.80
2018-07-05T09:29:05.660Z,21.80
2018-07-05T09:31:33.435Z,21.90
2018-07-05T09:34:01.129Z,21.90
2018-07-05T09:36:28.810Z,22.10
2018-07-05T09:38:56.515Z,22.10
2018-07-05T09:41:24.236Z,21.90
2018-07-05T09:43:51.947Z,21.80
2018-07-05T09:46:19.654Z,22.00
2018-07-05T09:48:47.340Z,22.00
2018-07-05T09:51:15.037Z,22.00
2018-07-05T09:53:42.757Z,22.10
2018-07-05T09:56:10.576Z,22.20
2018-07-05T09:58:38.260Z,22.30
2018-07-05T10:01:09.028Z,22.30
2018-07-05T10:03:36.763Z,22.20
2018-07-05T10:06:04.516Z,22.20
2018-07-05T10:08:32.241Z,22.20
2018-07-05T10:10:59.929Z,22.30
2018-07-05T10:13:27.794Z,22.20
2018-07-05T10:15:55.385Z,22.20
2018-07-05T10:18:23.251Z,22.30
2018-07-05T10:20:50.961Z,22.30
2018-07-05T10:23:18.662Z,22.30
2018-07-05T10:25:46.345Z,22.30
2018-07-05T10:28:14.049Z,22.40
2018-07-05T10:30:54.288Z,22.40
2018-07-05T10:33:40.848Z,22.50
2018-07-05T10:36:10.560Z,22.50
2018-07-05T10:38:38.252Z,22.50
2018-07-05T10:41:19.192Z,22.50
2018-07-05T10:44:05.494Z,22.60
2018-07-05T10:46:51.854Z,22.60
2018-07-05T10:49:38.199Z,22.50
2018-07-05T10:52:24.650Z,22.70
2018-07-05T10:55:11.222Z,22.50
2018-07-05T10:57:57.778Z,22.50
2018-07-05T11:00:44.132Z,22.60
2018-07-05T11:03:30.512Z,22.70
2018-07-05T11:08:57.097Z,22.50
2018-07-05T11:11:43.400Z,22.50
2018-07-05T11:14:29.754Z,22.50
2018-07-05T11:17:19.605Z,22.60
2018-07-05T11:20:06.808Z,22.40
2018-07-05T11:22:53.177Z,22.40
2018-07-05T11:25:39.692Z,22.50
2018-07-05T11:28:26.077Z,22.40
2018-07-05T11:31:12.557Z,22.40
2018-07-05T11:33:58.934Z,22.50
2018-07-05T11:36:45.321Z,22.60
2018-07-05T11:39:31.704Z,22.50
2018-07-05T11:42:18.024Z,22.50
2018-07-05T11:45:04.369Z,22.50
2018-07-05T11:47:50.763Z,22.60
2018-07-05T11:50:37.528Z,22.60
2018-07-05T11:53:23.986Z,22.60
2018-07-05T11:56:10.476Z,22.60
2018-07-05T11:58:56.984Z,22.50
2018-07-05T12:01:43.308Z,22.50
2018-07-05T12:04:29.777Z,22.50
2018-07-05T12:07:16.129Z,22.50
2018-07-05T12:10:03.277Z,22.60
2018-07-05T12:12:49.852Z,22.60
2018-07-05T12:15:37.289Z,22.50
2018-07-05T12:18:23.815Z,22.50
2018-07-05T12:21:10.164Z,22.50
2018-07-05T12:23:56.660Z,22.50
2018-07-05T12:26:43.006Z,22.50
2018-07-05T12:29:30.154Z,22.50
2018-07-05T12:32:16.344Z,22.50
2018-07-05T12:35:02.818Z,22.50
2018-07-05T12:37:49.273Z,22.50
2018-07-05T12:40:35.552Z,22.60
2018-07-05T12:43:22.162Z,22.50
2018-07-05T12:46:08.671Z,22.50
2018-07-05T12:48:55.152Z,22.50
2018-07-05T12:51:41.464Z,22.50
2018-07-05T12:54:27.993Z,22.50
2018-07-05T12:57:14.368Z,22.50
2018-07-05T13:00:00.707Z,22.50
2018-07-05T13:02:47.202Z,22.50
2018-07-05T13:05:35.910Z,22.50
2018-07-05T13:08:22.604Z,22.50
2018-07-05T13:11:09.041Z,22.50
2018-07-05T13:13:55.356Z,22.50
2018-07-05T13:16:41.613Z,22.50
2018-07-05T13:19:28.017Z,22.50
2018-07-05T13:22:14.417Z,22.50
2018-07-05T13:25:01.212Z,22.50
2018-07-05T13:27:49.395Z,22.50
2018-07-05T13:30:36.009Z,22.50
2018-07-05T13:33:22.508Z,22.50
2018-07-05T13:36:08.908Z,22.50
2018-07-05T13:38:55.416Z,22.50
2018-07-05T13:41:41.826Z,22.50
2018-07-05T13:44:28.246Z,22.50
2018-07-05T13:47:14.771Z,22.50
2018-07-05T13:50:02.083Z,22.50
2018-07-05T13:52:48.427Z,22.50
2018-07-05T13:55:34.781Z,22.50
2018-07-05T13:58:21.168Z,22.50
2018-07-05T14:01:08.201Z,22.40
2018-07-05T14:03:54.617Z,22.50
2018-07-05T14:06:41.450Z,22.40
2018-07-05T14:09:27.848Z,22.50
2018-07-05T14:56:13.862Z,22.50
2018-07-05T14:59:00.096Z,22.40
2018-07-05T15:01:46.588Z,22.40
2018-07-05T15:04:33.012Z,22.50
2018-07-05T15:07:19.365Z,22.40
2018-07-05T15:10:05.924Z,22.50
2018-07-05T15:12:52.383Z,22.50
2018-07-05T15:15:38.863Z,22.50
2018-07-05T15:18:25.247Z,22.40
2018-07-05T15:21:11.655Z,22.40
2018-07-05T15:23:59.546Z,22.50
2018-07-05T15:26:46.165Z,22.40
2018-07-05T15:29:36.500Z,22.40
2018-07-05T15:35:22.461Z,22.40
2018-07-05T15:38:09.963Z,22.50
2018-07-05T15:40:56.488Z,22.50
2018-07-05T15:43:43.021Z,22.50
2018-07-05T15:49:09.755Z,22.50
2018-07-05T15:51:55.861Z,22.50
2018-07-05T15:54:42.493Z,22.50
2018-07-05T15:57:29.016Z,22.50
2018-07-05T16:00:15.529Z,22.50
2018-07-05T16:03:01.962Z,22.50
2018-07-05T16:08:28.713Z,22.50
2018-07-05T16:13:55.422Z,22.50
2018-07-05T16:16:41.897Z,22.50
2018-07-05T16:19:28.170Z,22.40
2018-07-05T16:22:14.832Z,22.50
2018-07-05T16:25:01.573Z,22.50
2018-07-05T16:27:48.006Z,22.30
2018-07-05T16:30:34.613Z,22.30
2018-07-05T16:33:20.887Z,22.30
2018-07-05T16:36:07.514Z,22.20
2018-07-05T16:38:53.914Z,22.30
2018-07-05T16:41:40.224Z,22.40
2018-07-05T16:44:26.814Z,22.20
2018-07-05T16:47:13.364Z,22.20
2018-07-05T16:49:59.866Z,22.40
2018-07-05T16:52:46.480Z,22.40
2018-07-05T16:55:33.267Z,22.30
2018-07-05T16:58:19.638Z,22.30
2018-07-05T17:01:05.973Z,22.20
2018-07-05T17:03:52.483Z,22.20
2018-07-05T17:06:38.915Z,22.10
2018-07-05T17:09:25.380Z,22.20
2018-07-05T17:12:11.810Z,22.10
2018-07-05T17:14:58.108Z,22.10
2018-07-05T17:17:44.626Z,22.20
2018-07-05T17:20:30.908Z,22.10
2018-07-05T17:23:17.441Z,22.10
2018-07-05T17:26:03.960Z,22.00
2018-07-05T17:28:52.193Z,22.10
2018-07-05T17:31:38.587Z,21.90
2018-07-05T17:34:24.986Z,22.10
2018-07-05T17:37:11.405Z,22.00
2018-07-05T17:39:57.920Z,22.00
2018-07-05T17:42:44.478Z,21.80
2018-07-05T17:45:30.910Z,21.80
2018-07-05T17:48:17.349Z,21.80
2018-07-05T17:51:03.698Z,21.80
2018-07-05T17:53:50.295Z,21.90
2018-07-05T17:56:36.727Z,21.70
2018-07-05T17:59:23.212Z,21.80
2018-07-05T18:02:09.659Z,22.10
2018-07-05T18:04:56.004Z,22.30
2018-07-05T18:07:42.568Z,22.30
2018-07-05T18:10:29.045Z,22.40
2018-07-05T18:13:15.331Z,22.40
2018-07-05T18:16:01.892Z,22.40
2018-07-05T18:18:48.417Z,22.40
2018-07-05T18:21:34.823Z,22.30
2018-07-05T18:24:21.462Z,22.30
2018-07-05T18:27:07.956Z,22.30
2018-07-05T18:29:54.519Z,22.40
2018-07-05T18:32:40.896Z,22.40
2018-07-05T18:35:27.192Z,22.40
2018-07-05T18:38:13.469Z,22.40
2018-07-05T18:40:59.861Z,22.40
2018-07-05T18:43:46.445Z,22.50
2018-07-05T18:46:32.977Z,22.50
2018-07-05T18:49:19.158Z,22.50
2018-07-05T18:52:05.629Z,22.50
2018-07-05T18:54:52.048Z,22.40
2018-07-05T18:57:38.558Z,22.40
2018-07-05T19:00:26.092Z,22.30
2018-07-05T19:03:12.420Z,22.30
2018-07-05T19:05:58.821Z,22.20
2018-07-05T19:08:45.320Z,22.10
2018-07-05T19:11:31.693Z,22.20
2018-07-05T19:14:18.257Z,22.40
2018-07-05T19:17:05.361Z,22.40
2018-07-05T19:19:51.855Z,22.20
2018-07-05T19:22:38.092Z,22.20
2018-07-05T19:25:24.634Z,22.10
2018-07-05T19:28:10.776Z,22.40
2018-07-05T19:30:57.381Z,22.40
2018-07-05T19:33:43.891Z,22.40
2018-07-05T19:36:30.361Z,22.50
2018-07-05T19:39:16.930Z,22.50
2018-07-05T19:42:03.398Z,22.50
2018-07-05T19:44:49.784Z,22.20
2018-07-05T19:47:36.065Z,22.30
2018-07-05T19:50:22.474Z,22.30
2018-07-05T19:53:08.764Z,22.40
2018-07-05T19:55:55.160Z,22.40
2018-07-05T19:58:41.522Z,22.40
2018-07-05T20:01:27.978Z,22.40
2018-07-05T20:04:14.304Z,22.20
2018-07-05T20:07:00.869Z,21.90
2018-07-05T20:09:47.108Z,21.60
2018-07-05T20:12:33.337Z,21.40
2018-07-05T20:15:19.765Z,21.20
2018-07-05T20:18:06.082Z,21.00
2018-07-05T20:20:52.504Z,20.90
2018-07-05T20:23:38.976Z,20.80
2018-07-05T20:26:25.383Z,21.10
2018-07-05T20:29:11.602Z,21.60
2018-07-05T20:31:58.151Z,21.60
2018-07-05T20:34:44.587Z,21.20
2018-07-05T20:37:30.967Z,21.10
2018-07-05T20:40:17.516Z,21.10
2018-07-05T20:43:03.944Z,21.00
2018-07-05T20:45:50.374Z,21.00
2018-07-05T20:48:36.621Z,21.30
2018-07-05T20:51:22.988Z,21.00
2018-07-05T20:54:09.293Z,21.10
2018-07-05T20:56:55.770Z,21.00
2018-07-05T20:59:42.077Z,21.00
2018-07-05T21:02:28.531Z,20.90
2018-07-05T21:05:15.164Z,20.50
2018-07-05T21:08:01.686Z,20.60
2018-07-05T21:10:48.250Z,20.30
2018-07-05T21:13:34.674Z,20.30
2018-07-05T21:16:21.294Z,20.30
2018-07-05T21:19:07.904Z,20.50
2018-07-05T21:21:54.536Z,21.10
2018-07-05T21:24:41.025Z,21.30
2018-07-05T21:27:27.530Z,21.30
2018-07-05T21:30:13.926Z,20.90
2018-07-05T21:33:00.488Z,20.90
2018-07-05T21:35:46.858Z,20.90
2018-07-05T21:38:33.308Z,20.80
2018-07-05T21:41:19.840Z,20.50
2018-07-05T21:44:06.327Z,20.60
2018-07-05T21:46:52.905Z,20.50
2018-07-05T21:49:39.344Z,20.90
2018-07-05T21:52:25.734Z,20.70
2018-07-05T21:55:12.175Z,20.60
2018-07-05T21:57:58.726Z,21.00
2018-07-05T22:00:45.108Z,21.10
2018-07-05T22:03:31.758Z,21.50
2018-07-05T22:06:18.353Z,20.80
2018-07-05T22:09:05.636Z,20.60
2018-07-05T22:11:52.110Z,20.80
2018-07-05T22:14:38.653Z,20.80
2018-07-05T22:17:30.388Z,21.20
2018-07-05T22:20:22.499Z,21.10
2018-07-05T22:23:15.446Z,20.80
2018-07-05T22:26:07.522Z,21.00
2018-07-05T22:28:59.400Z,20.80
2018-07-05T22:31:49.971Z,21.00
2018-07-05T22:34:36.504Z,20.90
2018-07-05T22:37:22.981Z,20.80
2018-07-05T22:40:09.427Z,20.80
2018-07-05T22:42:55.728Z,21.10
2018-07-05T22:45:42.080Z,21.30
2018-07-05T22:48:28.578Z,21.10
2018-07-05T22:51:14.967Z,21.10
2018-07-05T22:54:01.297Z,21.30
2018-07-05T22:56:47.817Z,21.30
2018-07-05T22:59:34.180Z,21.00
2018-07-05T23:02:20.720Z,20.90
2018-07-05T23:05:07.102Z,21.20
2018-07-05T23:07:53.733Z,21.10
2018-07-05T23:10:39.992Z,21.00
2018-07-05T23:13:26.450Z,20.60
2018-07-05T23:16:12.940Z,20.50
2018-07-05T23:18:59.557Z,20.50
2018-07-05T23:21:46.246Z,20.60
2018-07-05T23:24:32.874Z,20.50
2018-07-05T23:29:59.569Z,20.80
2018-07-05T23:32:45.980Z,20.70
2018-07-05T23:35:32.465Z,20.50
2018-07-05T23:38:18.893Z,20.70
2018-07-05T23:41:05.236Z,20.70
2018-07-05T23:43:51.804Z,20.80
2018-07-05T23:46:38.244Z,20.80
2018-07-05T23:49:24.620Z,20.60
2018-07-05T23:52:11.033Z,20.90
2018-07-05T23:54:57.409Z,21.20
2018-07-05T23:57:43.894Z,20.90
